createdAt,value
2023-02-05T00:01:45.244Z,87.17
2023-02-05T00:03:47.963Z,87.06
2023-02-05T00:05:50.573Z,87.05
2023-02-05T00:07:53.172Z,87.04
2023-02-05T00:09:55.883Z,87.33
2023-02-05T00:11:59.417Z,87.09
2023-02-05T00:14:02.055Z,87.60
2023-02-05T00:16:12.953Z,88.17
2023-02-05T00:18:15.614Z,87.47
2023-02-05T00:20:18.403Z,87.52
2023-02-05T00:22:21.018Z,87.57
2023-02-05T00:24:23.798Z,88.16
2023-02-05T00:26:26.405Z,87.82
2023-02-05T00:28:29.185Z,88.21
2023-02-05T00:30:31.882Z,88.47
2023-02-05T00:32:34.620Z,88.20
2023-02-05T00:34:37.309Z,88.48
2023-02-05T00:36:39.971Z,88.71
2023-02-05T00:38:44.342Z,88.77
2023-02-05T00:40:47.077Z,88.62
2023-02-05T00:42:49.864Z,88.61
2023-02-05T00:44:52.585Z,89.15
2023-02-05T00:46:55.212Z,88.69
2023-02-05T00:48:58.005Z,88.72
2023-02-05T00:51:00.578Z,88.64
2023-02-05T00:53:03.293Z,88.67
2023-02-05T00:55:06.416Z,88.55
2023-02-05T00:57:09.211Z,88.29
2023-02-05T00:59:11.766Z,87.68
2023-02-05T01:01:15.249Z,88.17
2023-02-05T01:03:19.025Z,87.81
2023-02-05T01:05:21.647Z,88.10
2023-02-05T01:07:24.429Z,88.15
2023-02-05T01:09:27.008Z,88.71
2023-02-05T01:11:29.731Z,87.89
2023-02-05T01:13:32.467Z,87.96
2023-02-05T01:15:35.572Z,87.37
2023-02-05T01:17:38.385Z,87.37
2023-02-05T01:19:41.093Z,87.02
2023-02-05T01:21:43.705Z,87.15
2023-02-05T01:23:46.402Z,87.39
2023-02-05T01:25:49.110Z,87.59
2023-02-05T01:27:51.784Z,87.63
2023-02-05T01:29:54.432Z,87.84
2023-02-05T01:31:57.211Z,87.57
2023-02-05T01:34:00.004Z,87.42
2023-02-05T01:36:02.628Z,87.34
2023-02-05T01:38:05.333Z,87.58
2023-02-05T01:40:08.551Z,87.61
2023-02-05T01:42:20.080Z,87.12
2023-02-05T01:44:26.802Z,86.92
2023-02-05T01:46:31.387Z,87.14
2023-02-05T01:48:42.744Z,87.21
2023-02-05T01:50:49.109Z,86.69
2023-02-05T01:52:53.297Z,86.82
2023-02-05T01:54:57.216Z,86.15
2023-02-05T01:57:08.290Z,86.21
2023-02-05T01:59:24.576Z,85.43
2023-02-05T02:01:28.096Z,85.37
2023-02-05T02:03:32.092Z,85.02
2023-02-05T02:05:34.988Z,85.25
2023-02-05T02:07:38.830Z,85.81
2023-02-05T02:09:43.456Z,86.04
2023-02-05T02:11:46.094Z,86.27
2023-02-05T02:13:51.623Z,86.18
2023-02-05T02:15:55.806Z,86.01
2023-02-05T02:18:22.511Z,86.00
2023-02-05T02:20:31.211Z,86.09
2023-02-05T02:22:55.228Z,86.28
2023-02-05T02:25:35.608Z,85.07
2023-02-05T02:27:49.748Z,84.94
2023-02-05T02:30:02.902Z,85.22
2023-02-05T02:32:18.994Z,84.68
2023-02-05T02:34:39.586Z,84.76
2023-02-05T02:36:53.701Z,84.41
2023-02-05T02:39:04.163Z,84.98
2023-02-05T02:41:20.299Z,84.83
2023-02-05T02:43:30.784Z,84.91
2023-02-05T02:45:37.277Z,85.19
2023-02-05T02:47:49.614Z,84.65
2023-02-05T02:50:01.123Z,85.23
2023-02-05T02:52:07.990Z,84.64
2023-02-05T02:54:15.938Z,84.60
2023-02-05T02:56:19.732Z,84.39
2023-02-05T02:58:31.255Z,84.08
2023-02-05T03:00:34.561Z,83.65
2023-02-05T03:02:38.729Z,82.69
2023-02-05T03:04:45.444Z,83.27
2023-02-05T03:06:50.586Z,82.69
2023-02-05T03:09:11.261Z,82.98
2023-02-05T03:11:16.554Z,83.21
2023-02-05T03:13:19.767Z,82.69
2023-02-05T03:15:22.815Z,83.19
2023-02-05T03:17:26.828Z,83.44
2023-02-05T03:19:30.253Z,82.69
2023-02-05T03:21:40.667Z,82.42
2023-02-05T03:23:43.643Z,82.20
2023-02-05T03:25:46.400Z,82.47
2023-02-05T03:27:53.235Z,82.97
2023-02-05T03:29:56.135Z,82.88
2023-02-05T03:32:07.585Z,82.44
2023-02-05T03:34:12.744Z,82.22
2023-02-05T03:36:24.734Z,82.18
2023-02-05T03:38:42.671Z,81.91
2023-02-05T03:41:12.797Z,81.53
2023-02-05T03:43:42.404Z,80.13
2023-02-05T03:46:15.372Z,81.28
2023-02-05T03:48:54.589Z,81.42
2023-02-05T03:51:20.089Z,81.69
2023-02-05T03:53:29.336Z,81.88
2023-02-05T03:55:38.866Z,81.65
2023-02-05T03:57:58.320Z,81.44
2023-02-05T04:00:01.963Z,81.69
2023-02-05T04:02:07.700Z,81.49
2023-02-05T04:04:10.595Z,81.66
2023-02-05T04:06:13.350Z,81.86
2023-02-05T04:08:15.960Z,81.74
2023-02-05T04:10:19.441Z,81.63
2023-02-05T04:12:22.125Z,81.78
2023-02-05T04:14:24.697Z,81.78
2023-02-05T04:16:27.527Z,82.44
2023-02-05T04:18:30.323Z,81.91
2023-02-05T04:20:32.898Z,82.24
2023-02-05T04:22:35.494Z,82.25
2023-02-05T04:24:38.178Z,82.48
2023-02-05T04:26:40.828Z,81.90
2023-02-05T04:28:43.455Z,81.66
2023-02-05T04:30:46.104Z,82.21
2023-02-05T04:32:48.797Z,82.08
2023-02-05T04:34:51.691Z,81.98
2023-02-05T04:36:54.376Z,81.62
2023-02-05T04:38:57.336Z,82.24
2023-02-05T04:41:00.086Z,81.76
2023-02-05T04:43:02.773Z,82.02
2023-02-05T04:45:06.202Z,82.22
2023-02-05T04:47:09.528Z,82.41
2023-02-05T04:49:12.128Z,81.63
2023-02-05T04:51:15.555Z,82.07
2023-02-05T04:53:18.201Z,82.42
2023-02-05T04:55:20.823Z,82.08
2023-02-05T04:57:24.563Z,82.32
2023-02-05T04:59:27.206Z,81.64
2023-02-05T05:01:29.981Z,81.95
2023-02-05T05:03:32.743Z,81.88
2023-02-05T05:05:36.581Z,81.17
2023-02-05T05:07:39.583Z,80.93
2023-02-05T05:09:42.789Z,80.72
2023-02-05T05:11:45.485Z,80.52
2023-02-05T05:13:49.909Z,81.54
2023-02-05T05:15:57.237Z,81.65
2023-02-05T05:17:59.855Z,81.47
2023-02-05T05:20:02.855Z,81.57
2023-02-05T05:22:05.989Z,80.92
2023-02-05T05:24:08.675Z,81.02
2023-02-05T05:26:12.384Z,81.06
2023-02-05T05:28:16.709Z,80.91
2023-02-05T05:30:19.638Z,80.38
2023-02-05T05:32:22.642Z,80.54
2023-02-05T05:34:25.482Z,80.21
2023-02-05T05:36:28.156Z,80.63
2023-02-05T05:38:30.811Z,81.17
2023-02-05T05:40:52.699Z,81.21
2023-02-05T05:43:13.967Z,80.43
2023-02-05T05:45:16.738Z,80.43
2023-02-05T05:47:19.828Z,80.63
2023-02-05T05:49:22.422Z,80.60
2023-02-05T05:51:27.002Z,80.09
2023-02-05T05:53:29.901Z,80.41
2023-02-05T05:55:32.895Z,79.95
2023-02-05T05:57:36.045Z,79.70
2023-02-05T05:59:38.624Z,80.19
2023-02-05T06:01:41.588Z,80.23
2023-02-05T06:03:44.838Z,79.38
2023-02-05T06:05:47.930Z,79.39
2023-02-05T06:07:51.113Z,79.50
2023-02-05T06:09:55.100Z,79.74
2023-02-05T06:11:58.135Z,79.67
2023-02-05T06:14:00.896Z,79.64
2023-02-05T06:16:05.054Z,80.13
2023-02-05T06:18:08.046Z,79.83
2023-02-05T06:20:12.741Z,80.05
2023-02-05T06:22:15.929Z,80.02
2023-02-05T06:24:18.811Z,79.87
2023-02-05T06:26:21.691Z,80.11
2023-02-05T06:28:24.791Z,79.32
2023-02-05T06:30:27.694Z,80.14
2023-02-05T06:32:30.547Z,79.54
2023-02-05T06:34:33.303Z,79.28
2023-02-05T06:36:35.916Z,78.84
2023-02-05T06:38:38.547Z,78.90
2023-02-05T06:40:41.372Z,78.56
2023-02-05T06:42:45.014Z,78.53
2023-02-05T06:44:47.662Z,78.85
2023-02-05T06:46:50.512Z,78.62
2023-02-05T06:48:53.186Z,78.97
2023-02-05T06:50:55.924Z,78.32
2023-02-05T06:52:59.032Z,78.47
2023-02-05T06:55:03.123Z,78.44
2023-02-05T06:57:06.572Z,78.09
2023-02-05T06:59:09.439Z,77.70
2023-02-05T07:01:12.000Z,77.65
2023-02-05T07:03:14.693Z,77.56
2023-02-05T07:05:17.337Z,77.50
2023-02-05T07:07:19.958Z,77.03
2023-02-05T07:09:22.616Z,77.46
2023-02-05T07:11:25.768Z,77.21
2023-02-05T07:13:29.469Z,77.22
2023-02-05T07:15:32.261Z,77.30
2023-02-05T07:17:35.068Z,77.42
2023-02-05T07:19:37.967Z,76.68
2023-02-05T07:21:40.637Z,77.01
2023-02-05T07:23:43.487Z,77.30
2023-02-05T07:25:46.501Z,76.92
2023-02-05T07:27:49.212Z,77.70
2023-02-05T07:29:51.979Z,77.22
2023-02-05T07:31:54.658Z,77.14
2023-02-05T07:33:57.310Z,77.71
2023-02-05T07:36:07.375Z,77.38
2023-02-05T07:38:11.095Z,77.22
2023-02-05T07:40:13.732Z,77.79
2023-02-05T07:42:16.362Z,78.11
2023-02-05T07:44:19.081Z,78.17
2023-02-05T07:46:22.458Z,77.69
2023-02-05T07:48:25.223Z,78.23
2023-02-05T07:50:27.904Z,78.25
2023-02-05T07:52:30.682Z,77.79
2023-02-05T07:54:33.355Z,78.10
2023-02-05T07:56:36.030Z,78.40
2023-02-05T07:58:40.094Z,79.02
2023-02-05T08:00:43.604Z,78.83
2023-02-05T08:02:46.230Z,78.88
2023-02-05T08:04:48.910Z,78.15
2023-02-05T08:06:51.541Z,78.75
2023-02-05T08:08:55.538Z,78.63
2023-02-05T08:11:03.897Z,78.71
2023-02-05T08:13:06.448Z,78.55
2023-02-05T08:15:10.389Z,78.29
2023-02-05T08:17:13.326Z,78.16
2023-02-05T08:19:18.049Z,77.56
2023-02-05T08:21:22.205Z,76.67
2023-02-05T08:23:25.168Z,76.78
2023-02-05T08:25:27.767Z,76.38
2023-02-05T08:27:33.115Z,75.62
2023-02-05T08:29:35.930Z,75.05
2023-02-05T08:31:39.973Z,75.25
2023-02-05T08:33:43.685Z,74.92
2023-02-05T08:35:46.293Z,75.25
2023-02-05T08:37:48.996Z,75.25
2023-02-05T08:39:51.676Z,74.94
2023-02-05T08:41:56.730Z,74.82
2023-02-05T08:43:59.779Z,74.81
2023-02-05T08:46:04.398Z,74.80
2023-02-05T08:48:07.102Z,74.40
2023-02-05T08:50:10.744Z,74.67
2023-02-05T08:52:14.018Z,73.98
2023-02-05T08:54:16.977Z,73.96
2023-02-05T08:56:20.337Z,73.79
2023-02-05T08:58:23.543Z,73.71
2023-02-05T09:00:26.125Z,73.68
2023-02-05T09:02:31.984Z,73.57
2023-02-05T09:04:34.828Z,73.82
2023-02-05T09:06:37.427Z,73.76
2023-02-05T09:08:40.731Z,73.55
2023-02-05T09:10:46.199Z,73.04
2023-02-05T09:12:48.959Z,73.36
2023-02-05T09:14:52.200Z,73.70
2023-02-05T09:16:55.151Z,73.37
2023-02-05T09:18:59.664Z,73.34
2023-02-05T09:21:10.400Z,72.97
2023-02-05T09:23:15.090Z,72.67
2023-02-05T09:25:17.799Z,72.54
2023-02-05T09:27:20.389Z,71.84
2023-02-05T09:29:23.204Z,72.71
2023-02-05T09:31:25.957Z,72.41
2023-02-05T09:33:28.766Z,72.69
2023-02-05T09:35:35.805Z,72.90
2023-02-05T09:37:39.386Z,73.05
2023-02-05T09:40:18.900Z,73.18
2023-02-05T09:42:17.372Z,72.14
2023-02-05T09:44:49.949Z,72.67
2023-02-05T09:47:31.486Z,72.85
2023-02-05T09:49:46.153Z,73.16
2023-02-05T09:51:51.876Z,72.44
2023-02-05T09:54:00.653Z,72.79
2023-02-05T09:56:07.128Z,72.62
2023-02-05T09:58:17.793Z,72.61
2023-02-05T10:00:24.194Z,71.89
2023-02-05T10:02:42.384Z,71.23
2023-02-05T10:04:45.043Z,71.07
2023-02-05T10:07:11.128Z,70.94
2023-02-05T10:09:51.338Z,70.58
2023-02-05T10:12:14.219Z,70.15
2023-02-05T10:14:35.286Z,69.93
2023-02-05T10:16:53.960Z,69.03
2023-02-05T10:19:05.666Z,68.72
2023-02-05T10:21:20.026Z,68.82
2023-02-05T10:23:35.540Z,68.95
2023-02-05T10:25:59.104Z,68.77
2023-02-05T10:28:29.536Z,68.90
2023-02-05T10:31:03.767Z,67.91
2023-02-05T10:33:17.729Z,68.48
2023-02-05T10:35:30.644Z,68.72
2023-02-05T10:37:48.097Z,68.85
2023-02-05T10:39:50.831Z,69.00
2023-02-05T10:42:02.487Z,68.85
2023-02-05T10:44:43.264Z,67.64
2023-02-05T10:46:51.882Z,67.88
2023-02-05T10:49:25.677Z,67.74
2023-02-05T10:51:46.469Z,68.14
2023-02-05T10:53:49.209Z,67.91
2023-02-05T10:55:51.986Z,67.38
2023-02-05T10:57:55.245Z,67.32
2023-02-05T11:00:05.787Z,66.85
2023-02-05T11:02:11.856Z,67.78
2023-02-05T11:04:17.997Z,68.22
2023-02-05T11:06:24.241Z,68.24
2023-02-05T11:08:33.162Z,68.37
2023-02-05T11:10:36.578Z,69.60
2023-02-05T11:12:39.936Z,68.79
2023-02-05T11:14:46.073Z,68.86
2023-02-05T11:16:48.764Z,69.02
2023-02-05T11:19:01.625Z,68.90
2023-02-05T11:21:06.263Z,68.49
2023-02-05T11:23:21.416Z,68.97
2023-02-05T11:25:30.425Z,68.99
2023-02-05T11:27:38.161Z,68.85
2023-02-05T11:29:40.767Z,69.18
2023-02-05T11:31:44.241Z,69.08
2023-02-05T11:33:49.380Z,69.01
2023-02-05T11:36:02.709Z,68.32
2023-02-05T11:38:11.804Z,68.67
2023-02-05T11:40:24.807Z,69.03
2023-02-05T11:42:28.741Z,69.62
2023-02-05T11:44:32.501Z,69.77
2023-02-05T11:46:43.603Z,70.06
2023-02-05T11:49:02.330Z,69.71
2023-02-05T11:51:08.431Z,69.57
2023-02-05T11:53:19.091Z,70.00
2023-02-05T11:55:29.196Z,70.23
2023-02-05T11:57:39.256Z,70.51
2023-02-05T12:00:05.260Z,70.77
2023-02-05T12:02:30.177Z,71.35
2023-02-05T12:04:46.742Z,70.98
2023-02-05T12:07:08.280Z,70.93
2023-02-05T12:09:21.576Z,71.15
2023-02-05T12:11:30.342Z,71.21
2023-02-05T12:13:51.731Z,71.13
2023-02-05T12:16:35.590Z,71.54
2023-02-05T12:18:58.605Z,70.76
2023-02-05T12:21:31.392Z,71.14
2023-02-05T12:23:36.694Z,72.17
2023-02-05T12:26:03.707Z,72.46
2023-02-05T12:28:23.319Z,72.93
2023-02-05T12:30:51.914Z,72.41
2023-02-05T12:33:17.248Z,73.08
2023-02-05T12:35:38.535Z,73.18
2023-02-05T12:38:31.598Z,73.48
2023-02-05T12:41:07.801Z,73.59
2023-02-05T12:43:28.956Z,74.11
2023-02-05T12:45:31.518Z,74.94
2023-02-05T12:48:11.352Z,74.91
2023-02-05T12:50:32.083Z,75.75
2023-02-05T12:53:18.497Z,76.44
2023-02-05T12:55:58.699Z,76.62
2023-02-05T12:58:05.434Z,76.87
2023-02-05T13:00:16.497Z,76.86
2023-02-05T13:02:57.800Z,77.37
2023-02-05T13:05:22.003Z,77.74
2023-02-05T13:07:30.762Z,77.32
2023-02-05T13:09:48.697Z,78.09
2023-02-05T13:11:58.640Z,77.77
2023-02-05T13:14:14.399Z,78.18
2023-02-05T13:16:20.099Z,78.15
2023-02-05T13:18:41.727Z,78.67
2023-02-05T13:21:08.936Z,78.35
2023-02-05T13:23:31.145Z,79.11
2023-02-05T13:26:04.707Z,79.33
2023-02-05T13:28:58.718Z,79.14
2023-02-05T13:31:03.429Z,80.42
2023-02-05T13:33:07.784Z,81.12
2023-02-05T13:35:11.197Z,80.93
2023-02-05T13:37:43.562Z,81.68
2023-02-05T13:39:54.987Z,82.30
2023-02-05T13:42:04.117Z,82.17
2023-02-05T13:44:36.749Z,82.75
2023-02-05T13:47:04.724Z,83.26
2023-02-05T13:49:26.077Z,83.55
2023-02-05T13:51:52.060Z,83.42
2023-02-05T13:54:27.331Z,84.59
2023-02-05T13:56:47.520Z,84.72
2023-02-05T13:58:50.065Z,84.71
2023-02-05T14:01:06.058Z,85.09
2023-02-05T14:03:10.054Z,85.57
2023-02-05T14:05:14.532Z,85.50
2023-02-05T14:07:34.335Z,85.64
2023-02-05T14:09:52.436Z,85.94
2023-02-05T14:12:00.828Z,85.95
2023-02-05T14:14:29.624Z,86.41
2023-02-05T14:16:34.035Z,86.36
2023-02-05T14:18:45.483Z,86.27
2023-02-05T14:20:48.294Z,86.34
2023-02-05T14:22:55.280Z,85.81
2023-02-05T14:24:58.261Z,86.35
2023-02-05T14:27:00.981Z,85.77
2023-02-05T14:29:03.613Z,86.71
2023-02-05T14:31:07.569Z,86.81
2023-02-05T14:33:33.746Z,87.21
2023-02-05T14:35:39.844Z,86.91
2023-02-05T14:37:46.368Z,86.96
2023-02-05T14:39:49.076Z,86.46
2023-02-05T14:41:58.936Z,86.99
2023-02-05T14:44:06.995Z,86.46
2023-02-05T14:46:34.028Z,86.25
2023-02-05T14:48:46.569Z,85.99
2023-02-05T14:51:23.311Z,85.92
2023-02-05T14:53:29.937Z,85.80
2023-02-05T14:55:43.569Z,85.59
2023-02-05T14:57:58.289Z,85.34
2023-02-05T15:00:06.390Z,85.62
2023-02-05T15:02:47.145Z,85.55
2023-02-05T15:04:52.913Z,85.27
2023-02-05T15:07:00.117Z,84.95
2023-02-05T15:09:21.026Z,84.82
2023-02-05T15:11:29.392Z,85.36
2023-02-05T15:13:33.132Z,84.61
2023-02-05T15:15:37.799Z,85.07
2023-02-05T15:17:49.689Z,84.92
2023-02-05T15:19:56.120Z,84.83
2023-02-05T15:22:00.787Z,85.17
2023-02-05T15:24:14.046Z,84.82
2023-02-05T15:26:35.225Z,84.97
2023-02-05T15:28:49.980Z,84.98
2023-02-05T15:31:08.622Z,85.20
2023-02-05T15:33:20.290Z,84.69
2023-02-05T15:35:25.872Z,85.03
2023-02-05T15:37:46.354Z,84.65
2023-02-05T15:39:58.034Z,85.00
2023-02-05T15:42:03.003Z,84.61
2023-02-05T15:44:05.714Z,84.76
2023-02-05T15:46:13.235Z,84.37
2023-02-05T15:48:24.052Z,84.65
2023-02-05T15:50:28.416Z,84.80
2023-02-05T15:52:33.155Z,84.59
2023-02-05T15:54:36.938Z,84.16
2023-02-05T15:56:42.486Z,85.03
2023-02-05T15:58:54.102Z,84.75
2023-02-05T16:00:57.767Z,84.55
2023-02-05T16:03:02.687Z,84.66
2023-02-05T16:05:20.443Z,85.02
2023-02-05T16:07:35.869Z,84.13
2023-02-05T16:09:46.057Z,84.04
2023-02-05T16:11:49.016Z,84.37
2023-02-05T16:14:03.894Z,84.43
2023-02-05T16:16:18.622Z,84.27
2023-02-05T16:18:41.303Z,84.11
2023-02-05T16:20:50.545Z,84.16
2023-02-05T16:22:58.568Z,83.97
2023-02-05T16:25:06.477Z,84.00
2023-02-05T16:27:19.846Z,84.48
2023-02-05T16:29:39.040Z,84.66
2023-02-05T16:31:45.602Z,84.57
2023-02-05T16:33:53.697Z,84.28
2023-02-05T16:36:00.146Z,84.64
2023-02-05T16:38:09.261Z,84.61
2023-02-05T16:40:12.703Z,84.46
2023-02-05T16:42:27.186Z,84.32
2023-02-05T16:44:33.525Z,83.67
2023-02-05T16:46:37.155Z,84.69
2023-02-05T16:48:48.372Z,84.58
2023-02-05T16:50:52.473Z,84.62
2023-02-05T16:52:59.401Z,84.59
2023-02-05T16:55:28.056Z,84.90
2023-02-05T16:57:34.617Z,84.79
2023-02-05T16:59:42.486Z,84.45
2023-02-05T17:01:45.864Z,84.52
2023-02-05T17:03:50.420Z,84.40
2023-02-05T17:05:57.040Z,84.79
2023-02-05T17:08:02.473Z,85.07
2023-02-05T17:10:20.725Z,84.80
2023-02-05T17:12:23.374Z,85.16
2023-02-05T17:14:31.622Z,84.62
2023-02-05T17:16:34.259Z,85.38
2023-02-05T17:18:37.056Z,85.31
2023-02-05T17:20:41.732Z,85.60
2023-02-05T17:23:07.152Z,85.10
2023-02-05T17:25:10.403Z,85.51
2023-02-05T17:27:36.289Z,85.98
2023-02-05T17:29:39.329Z,85.72
2023-02-05T17:31:42.351Z,85.13
2023-02-05T17:33:49.789Z,85.22
2023-02-05T17:35:52.367Z,85.40
2023-02-05T17:37:55.107Z,85.39
2023-02-05T17:39:57.944Z,85.82
2023-02-05T17:42:07.839Z,85.75
2023-02-05T17:44:16.103Z,85.88
2023-02-05T17:46:18.751Z,85.89
2023-02-05T17:48:21.488Z,85.64
2023-02-05T17:50:24.126Z,85.61
2023-02-05T17:52:26.703Z,86.25
2023-02-05T17:54:30.068Z,85.68
2023-02-05T17:56:32.728Z,85.59
2023-02-05T17:58:35.730Z,86.05
2023-02-05T18:00:38.414Z,85.54
2023-02-05T18:02:41.054Z,85.95
2023-02-05T18:04:45.155Z,85.81
2023-02-05T18:06:49.916Z,85.88
2023-02-05T18:08:53.232Z,85.98
2023-02-05T18:10:56.345Z,85.51
2023-02-05T18:12:59.485Z,85.50
2023-02-05T18:15:02.174Z,86.32
2023-02-05T18:17:06.695Z,86.23
2023-02-05T18:19:09.518Z,85.60
2023-02-05T18:21:12.107Z,85.75
2023-02-05T18:23:27.526Z,86.28
2023-02-05T18:25:31.264Z,85.69
2023-02-05T18:27:34.848Z,85.92
2023-02-05T18:29:38.644Z,85.79
2023-02-05T18:31:41.462Z,85.44
2023-02-05T18:33:44.136Z,85.59
2023-02-05T18:35:46.957Z,85.24
2023-02-05T18:37:50.356Z,84.96
2023-02-05T18:39:53.088Z,85.03
2023-02-05T18:41:58.386Z,85.00
2023-02-05T18:44:02.399Z,84.88
2023-02-05T18:46:14.880Z,84.97
2023-02-05T18:48:17.418Z,85.05
2023-02-05T18:50:19.963Z,85.65
2023-02-05T18:52:26.849Z,85.23
2023-02-05T18:54:29.645Z,85.64
2023-02-05T18:56:33.049Z,85.37
2023-02-05T18:58:36.630Z,85.99
2023-02-05T19:00:39.268Z,86.31
2023-02-05T19:02:41.948Z,86.03
2023-02-05T19:04:45.867Z,86.05
2023-02-05T19:06:53.817Z,85.71
2023-02-05T19:08:58.216Z,86.33
2023-02-05T19:11:06.543Z,85.86
2023-02-05T19:13:09.415Z,85.94
2023-02-05T19:15:12.250Z,86.79
2023-02-05T19:17:14.870Z,86.73
2023-02-05T19:19:26.788Z,86.14
2023-02-05T19:21:31.673Z,86.83
2023-02-05T19:23:34.512Z,86.87
2023-02-05T19:25:38.045Z,86.50
2023-02-05T19:27:40.781Z,87.33
2023-02-05T19:29:43.444Z,86.89
2023-02-05T19:31:46.970Z,88.10
2023-02-05T19:33:49.977Z,88.38
2023-02-05T19:35:52.698Z,88.82
2023-02-05T19:37:55.296Z,89.32
2023-02-05T19:39:59.525Z,89.23
2023-02-05T19:42:02.207Z,89.46
2023-02-05T19:44:07.289Z,89.32
2023-02-05T19:46:10.298Z,89.46
2023-02-05T19:48:13.775Z,89.34
2023-02-05T19:50:16.838Z,89.54
2023-02-05T19:52:19.470Z,89.62
2023-02-05T19:54:22.605Z,90.31
2023-02-05T19:56:26.297Z,89.86
2023-02-05T19:58:30.573Z,90.51
2023-02-05T20:00:33.507Z,90.55
2023-02-05T20:02:36.271Z,90.78
2023-02-05T20:04:41.424Z,90.53
2023-02-05T20:06:46.391Z,91.14
2023-02-05T20:08:49.437Z,90.54
2023-02-05T20:11:00.169Z,90.63
2023-02-05T20:13:02.921Z,91.22
2023-02-05T20:15:05.944Z,91.04
2023-02-05T20:17:09.321Z,91.00
2023-02-05T20:19:14.170Z,91.09
2023-02-05T20:21:18.970Z,91.11
2023-02-05T20:23:21.656Z,91.07
2023-02-05T20:25:24.348Z,91.02
2023-02-05T20:27:26.953Z,91.49
2023-02-05T20:29:48.351Z,90.66
2023-02-05T20:31:52.926Z,90.64
2023-02-05T20:33:55.669Z,90.40
2023-02-05T20:36:04.047Z,90.56
2023-02-05T20:38:06.707Z,90.72
2023-02-05T20:40:09.944Z,90.48
2023-02-05T20:42:16.389Z,90.43
2023-02-05T20:44:20.001Z,90.79
2023-02-05T20:46:23.114Z,90.11
2023-02-05T20:48:25.791Z,90.37
2023-02-05T20:50:28.634Z,90.67
2023-02-05T20:52:31.458Z,90.21
2023-02-05T20:54:34.636Z,90.56
2023-02-05T20:56:37.719Z,90.51
2023-02-05T20:58:40.786Z,89.89
2023-02-05T21:00:43.509Z,90.33
2023-02-05T21:02:46.149Z,90.37
2023-02-05T21:04:49.605Z,89.83
2023-02-05T21:06:56.416Z,89.55
2023-02-05T21:08:59.319Z,89.97
2023-02-05T21:11:02.406Z,90.24
2023-02-05T21:13:05.016Z,89.54
2023-02-05T21:15:07.978Z,89.90
2023-02-05T21:17:10.697Z,89.35
2023-02-05T21:19:13.327Z,89.08
2023-02-05T21:21:31.246Z,89.35
2023-02-05T21:23:34.244Z,88.83
2023-02-05T21:25:36.847Z,89.05
2023-02-05T21:27:40.412Z,88.91
2023-02-05T21:29:43.809Z,89.78
2023-02-05T21:31:49.961Z,89.36
2023-02-05T21:33:52.766Z,89.18
2023-02-05T21:35:55.629Z,88.79
2023-02-05T21:37:58.405Z,88.80
2023-02-05T21:40:09.089Z,88.71
2023-02-05T21:42:12.088Z,88.58
2023-02-05T21:44:14.738Z,88.54
2023-02-05T21:46:18.055Z,88.29
2023-02-05T21:48:20.653Z,88.42
2023-02-05T21:50:23.252Z,88.00
2023-02-05T21:52:25.939Z,88.47
2023-02-05T21:54:28.573Z,88.34
2023-02-05T21:56:37.614Z,88.05
2023-02-05T21:58:41.462Z,88.03
2023-02-05T22:00:44.041Z,88.40
2023-02-05T22:02:46.682Z,88.16
2023-02-05T22:04:49.308Z,88.18
2023-02-05T22:06:51.985Z,88.03
2023-02-05T22:08:56.537Z,87.73
2023-02-05T22:11:07.013Z,87.77
2023-02-05T22:13:09.524Z,87.78
2023-02-05T22:15:13.617Z,87.88
2023-02-05T22:17:16.283Z,88.35
2023-02-05T22:19:18.929Z,87.80
2023-02-05T22:21:27.434Z,87.64
2023-02-05T22:23:30.021Z,87.79
2023-02-05T22:25:33.091Z,87.94
2023-02-05T22:27:36.157Z,87.90
2023-02-05T22:29:38.805Z,88.31
2023-02-05T22:31:41.908Z,88.16
2023-02-05T22:33:46.296Z,88.15
2023-02-05T22:35:52.780Z,88.59
2023-02-05T22:37:55.522Z,88.72
2023-02-05T22:39:58.081Z,88.38
2023-02-05T22:42:01.613Z,88.62
2023-02-05T22:44:06.015Z,88.48
2023-02-05T22:46:14.574Z,88.47
2023-02-05T22:48:17.299Z,88.30
2023-02-05T22:50:19.870Z,88.48
2023-02-05T22:52:22.489Z,88.00
2023-02-05T22:54:25.085Z,88.10
2023-02-05T22:56:28.919Z,88.83
2023-02-05T22:58:31.956Z,88.61
2023-02-05T23:00:34.773Z,88.85
2023-02-05T23:02:37.529Z,88.56
2023-02-05T23:04:40.214Z,88.89
2023-02-05T23:06:43.252Z,88.63
2023-02-05T23:08:55.432Z,88.39
2023-02-05T23:11:04.607Z,88.71
2023-02-05T23:13:07.474Z,88.73
2023-02-05T23:15:10.388Z,87.97
2023-02-05T23:17:13.068Z,88.64
2023-02-05T23:19:20.371Z,88.66
2023-02-05T23:21:26.220Z,88.03
2023-02-05T23:23:28.814Z,88.56
2023-02-05T23:25:31.407Z,88.15
2023-02-05T23:27:34.298Z,88.99
2023-02-05T23:29:37.410Z,88.67
2023-02-05T23:31:40.476Z,88.24
2023-02-05T23:33:43.302Z,88.97
2023-02-05T23:35:45.944Z,89.10
